Relevés horaires Bierset (Belgique)


Relevés horaires à Bierset - Jeudi 08 Juin 2023
Heure UTC1 Température [°C] Vent [km/h] Hum. [%] Pres.4 [hPa] Visi. [Km] Nébu. [octa] Préc.5 [mm] Cond.
2m. Res. Ros. Dir.2 Vit. Moy. Raf.3
23:00 18.6 18.6 12.8 E 5.6 5.6 9.3 69 1014.2(0.5/3h) 30 1/8 -- --
22:00 19.0 19.0 13.2 NE 3.7 3.7 13.0 69 1014(0.5/3h) 30 1/8 -- --
21:00 20.8 20.8 13.4 E 3.7 11.1 16.7 63 1013.9(0.7/3h) 30 1/8 -- --
20:00 21.5 21.5 12.8 ENE 3.7 7.4 11.1 58 1013.4(0.5/3h) 30 3/8 -- --
19:00 22.6 22.6 12.3 E 7.4 11.1 16.7 52 1013.2(-0.2/3h) 30 3/8 -- --
18:00 23.7 23.7 10.9 ENE 7.4 14.8 20.4 44 1013(-0.4/3h) 30 3/8 0/12h
--
17:00 24.0 24.0 12.5 ENE 13.0 14.8 20.4 49 1012.7(-1.0/3h) 20 2/8 -- --
16:00 25.4 25.4 13.3 NNE 11.1 13.0 16.7 47 1012.8(-1.3/3h) 20 1/8 -- --
15:00 25.8 25.8 13.1 NE 9.3 11.1 18.5 45 1013.2(-1.6/3h) 20 1/8 -- --
14:00 24.3 24.3 13.5 N 9.3 11.1 16.7 51 1013.8(-1.6/3h) 20 1/8 -- --
13:00 24.8 24.8 14.0 NE 9.3 11.1 18.5 51 1014.2(-1.6/3h) 20 1/8 -- --
12:00 24.0 24.0 13.6 NE 9.3 11.1 16.7 52 1014.9(-1.3/3h) 20 1/8 0/6h
--
11:00 22.7 22.7 13.8 NNE 7.4 11.1 14.8 57 1015.5(-0.8/3h) 15 1/8 -- --
10:00 21.2 21.2 13.1 NE 9.3 9.3 14.8 60 1016(-0.5/3h) 15 0/8 -- --
09:00 19.4 19.4 13.6 NNE 5.6 7.4 11.1 69 1016.5(-0.2/3h) 15 0/8 -- --
08:00 17.8 17.8 13.2 NNE 5.6 5.6 9.3 74 1016.6(-0.2/3h) 13 0/8 -- --
07:00 15.9 15.9 12.7 N 3.7 5.6 7.4 81 1017(-0.1/3h) 13 0/8 -- --
06:00 14.4 14.4 12.0 N 3.7 3.7 7.4 85 1017(0.0/3h) 10 0/8 0/12h
--
05:00 12.4 12.4 10.8 N 3.7 3.7 5.6 90 1017.2(-0.2/3h) 10 1/8 -- --
04:00 11.8 11.8 10.2 N 1.9 3.7 7.4 90 1017.4(-0.4/3h) 10 1/8 -- --
03:00 13.0 13.0 11.1 NNE 3.7 3.7 7.4 88 1017.2(-0.8/3h) 9 1/8 -- --
02:00 13.0 13.0 11.7 NNO 1.9 3.7 5.6 92 1017.4(-1.0/3h) 15 1/8 -- --
01:00 13.1 13.1 11.6 N 3.7 3.7 5.6 91 1017.7(-0.8/3h) 15 1/8 -- --
00:00 13.8 13.8 11.7 N 3.7 7.4 9.3 87 1018(-0.4/3h) 15 1/8 0/6h
0/24h
--

1 Coordinated Universal Time. Actuellement il est 02:00 locale et 00:00 UTC.

2 Le vent souffle depuis la direction indiquée vers la direction oposée.

3 Les rafales max. sont disponible 40 min après l'heure du relevé.

4 Pour les stations d'altitude (plus de 600m) le géopotentiel du niveau le plus proche de la pression obligatoire est indiqué.

5 Les stations disposant d'un diffuseur peuvent indiquer "trace". Cela signifie que des précipitations ont touchés le sol mais que la quantité est inférieure à 0.1 mm.

Récapitulatif de la journée
Température [°C] Vent [km/h] Ensoleillement4 [h] Precipitations totale5 [mm] Pression [Hpa]
Min1 Max.2 Moy.3 Max. Min Max.
11.7 25.9 8.1 20.4 0 h 0 min 0 1012.7 1018.0

1 Température minimale relevée entre 18:00 UTC la veille et 18:00 UTC le jour donné.

2 Température maximale relevée entre 06:00 UTC le jour donné et 06:00 UTC le lendemain.

3 Vent moyen de la journée basé sur les relevés horaires.

4 Ensoleillement en heures relevé entre 06:00 UTC la veille et 06:00 UTC le jour donné.

5 Précipitations totales tombées entre 06:00 UTC la jour donné et 06:00 UTC le lendemain.

Graphiques horaires